Hlavní strana
METAR-TAF:

METAR-TAF

Letiště :

Dušanbe, Tádžikistán

zeměpisná šířka: 38-33N, zeměpisná délka: 068-47E, výška: 803 m

Aktuální stav počasí

Zpráva byla vytvořena před 10 minutami, v 19:00 UTC
vítr z různých směrů 4 kt
Teplota 26°C
Vlhkost vzduchu 39%
Tlak 1010 hPa
Viditelnost 10 km a více

METAR: UTDD 151900Z VRB02MPS 9999 NSC 26/11 Q1010 R09/CLRD// NOSIG RMK QFE689/0919

Čas: 00:10 (19:10 UTC)

Předpověď počasí

Zpráva byla vytvořena před 1 hodinou a 10 minutami, v 18:00 UTC
Předpověď platná od 15 v 19 UTC do 16 v 07 UTC
Východní vítr 10 kt
Viditelnost: 6000 m

TAF: UTDD 151800Z 1519/1607 08005MPS 6000 NSC

Stav a předpovědi počasí z více než 4 000 letišť (zprávy METAR a TAF).

Červené a žluté tečky na mapě představují dostupné meteorologické stanice.

Když kurzor umístíte na tečku, zobrazí se název stanice.

Pak kliknutím zobrazíte stav a předpověď počasí.

Chcete-li změnit mapu, kliknutím na zelené tlačítko se znaménkem +mapu přiblížíte, kliknutím na zelené tlačítko se znaménkem – mapu oddálíte a kliknutím na zelené šipky přejdete na sousední mapy.


METAR-TAF: